Time,TemperatureF,DewpointF,PressureIn,WindDirection,WindDirectionDegrees,WindSpeedMPH,WindSpeedGustMPH,Humidity,HourlyPrecipIn,Conditions,Clouds,dailyrainin,SoftwareType,DateUTC
2013-03-28 00:02:00,37.0,32.0,30.23,SE,144,6.0,7.0,82,0.00,,,0.00,,2013-03-28 05:02:00,
2013-03-28 00:12:00,37.0,32.0,30.23,SE,144,6.0,7.0,82,0.00,,,0.00,,2013-03-28 05:12:00,
2013-03-28 00:22:00,38.0,32.0,30.23,SSE,148,6.0,10.0,80,0.00,,,0.00,,2013-03-28 05:22:00,
2013-03-28 00:32:00,38.0,32.0,30.23,SE,146,5.0,10.0,79,0.00,,,0.00,,2013-03-28 05:32:00,
2013-03-28 00:42:00,38.0,32.0,30.23,SE,146,5.0,10.0,79,0.00,,,0.00,,2013-03-28 05:42:00,
2013-03-28 00:52:00,38.0,32.0,30.23,SE,144,5.0,8.0,80,0.00,,,0.00,,2013-03-28 05:52:00,
2013-03-28 01:02:00,37.0,32.0,30.23,SE,142,6.0,10.0,81,0.00,,,0.00,,2013-03-28 06:02:00,
2013-03-28 01:12:00,37.0,32.0,30.23,SE,142,6.0,10.0,81,0.00,,,0.00,,2013-03-28 06:12:00,
2013-03-28 01:22:00,37.0,32.0,30.23,SSE,153,6.0,9.0,82,0.00,,,0.00,,2013-03-28 06:22:00,
2013-03-28 01:32:00,36.0,31.0,30.23,SSE,153,5.0,7.0,82,0.00,,,0.00,,2013-03-28 06:32:00,
2013-03-28 01:42:00,36.0,31.0,30.23,SSE,153,5.0,7.0,82,0.00,,,0.00,,2013-03-28 06:42:00,
2013-03-28 01:52:00,36.0,31.0,30.23,SSE,159,4.0,5.0,82,0.00,,,0.00,,2013-03-28 06:52:00,
2013-03-28 02:02:00,36.0,31.0,30.23,SE,146,4.0,6.0,83,0.00,,,0.00,,2013-03-28 07:02:00,
2013-03-28 02:12:00,36.0,31.0,30.23,SE,146,4.0,6.0,83,0.00,,,0.00,,2013-03-28 07:12:00,
2013-03-28 02:22:00,34.0,30.0,30.23,SSE,150,2.0,6.0,84,0.00,,,0.00,,2013-03-28 07:22:00,
2013-03-28 02:32:00,34.0,30.0,30.23,SSE,150,1.0,4.0,86,0.00,,,0.00,,2013-03-28 07:32:00,
2013-03-28 02:42:00,34.0,30.0,30.23,SSE,150,1.0,4.0,86,0.00,,,0.00,,2013-03-28 07:42:00,
2013-03-28 02:52:00,33.0,29.0,30.23,SSE,147,2.0,5.0,86,0.00,,,0.00,,2013-03-28 07:52:00,
2013-03-28 03:02:00,33.0,30.0,30.23,SSE,147,1.0,4.0,87,0.00,,,0.00,,2013-03-28 08:02:00,
2013-03-28 03:12:00,33.0,30.0,30.23,SSE,147,1.0,4.0,87,0.00,,,0.00,,2013-03-28 08:12:00,
2013-03-28 03:21:00,33.0,29.0,30.22,SE,142,3.0,4.0,85,0.00,,,0.00,,2013-03-28 08:21:00,
2013-03-28 03:32:00,31.0,28.0,30.22,SE,142,1.0,4.0,87,0.00,,,0.00,,2013-03-28 08:32:00,
2013-03-28 03:42:00,31.0,28.0,30.22,SE,142,1.0,4.0,87,0.00,,,0.00,,2013-03-28 08:42:00,
2013-03-28 03:52:00,32.0,29.0,30.22,SE,142,0.0,2.0,90,0.00,,,0.00,,2013-03-28 08:52:00,
2013-03-28 04:02:00,33.0,30.0,30.22,SSE,159,1.0,5.0,89,0.00,,,0.00,,2013-03-28 09:02:00,
2013-03-28 04:12:00,33.0,30.0,30.22,SSE,159,1.0,5.0,89,0.00,,,0.00,,2013-03-28 09:12:00,
2013-03-28 04:22:00,33.0,30.0,30.21,SSE,158,3.0,4.0,88,0.00,,,0.00,,2013-03-28 09:22:00,
2013-03-28 04:32:00,32.0,29.0,30.22,SSE,158,0.0,5.0,87,0.00,,,0.00,,2013-03-28 09:32:00,
2013-03-28 04:42:00,30.0,27.0,30.21,SSE,158,0.0,4.0,88,0.00,,,0.00,,2013-03-28 09:42:00,
2013-03-28 04:52:00,30.0,27.0,30.21,SSE,158,0.0,4.0,88,0.00,,,0.00,,2013-03-28 09:52:00,
2013-03-28 05:02:00,31.0,28.0,30.21,SSE,158,0.0,0.0,90,0.00,,,0.00,,2013-03-28 10:02:00,
2013-03-28 05:12:00,31.0,28.0,30.21,SSE,158,0.0,0.0,90,0.00,,,0.00,,2013-03-28 10:12:00,
2013-03-28 05:22:00,30.0,27.0,30.21,SSE,158,0.0,0.0,90,0.00,,,0.00,,2013-03-28 10:22:00,
2013-03-28 05:33:00,30.0,27.0,30.21,SSE,158,0.0,0.0,90,0.00,,,0.00,,2013-03-28 10:33:00,
2013-03-28 05:42:00,30.0,27.0,30.21,SSE,158,0.0,0.0,90,0.00,,,0.00,,2013-03-28 10:42:00,
2013-03-28 05:53:00,30.0,28.0,30.22,SSE,158,0.0,0.0,92,0.00,,,0.00,,2013-03-28 10:53:00,
2013-03-28 06:02:00,30.0,28.0,30.22,SSE,158,0.0,0.0,92,0.00,,,0.00,,2013-03-28 11:02:00,
2013-03-28 06:12:00,30.0,28.0,30.22,SSE,158,0.0,0.0,92,0.00,,,0.00,,2013-03-28 11:12:00,
2013-03-28 06:22:00,30.0,28.0,30.22,SSE,158,0.0,0.0,93,0.00,,,0.00,,2013-03-28 11:22:00,
2013-03-28 06:32:00,29.0,27.0,30.22,SSE,158,0.0,0.0,92,0.00,,,0.00,,2013-03-28 11:32:00,
2013-03-28 06:42:00,29.0,27.0,30.22,SSE,158,0.0,0.0,92,0.00,,,0.00,,2013-03-28 11:42:00,
2013-03-28 06:52:00,29.0,27.0,30.22,SSE,158,0.0,0.0,93,0.00,,,0.00,,2013-03-28 11:52:00,
2013-03-28 07:02:00,29.0,27.0,30.22,SSE,158,0.0,0.0,94,0.00,,,0.00,,2013-03-28 12:02:00,
2013-03-28 07:12:00,29.0,27.0,30.22,SSE,158,0.0,0.0,94,0.00,,,0.00,,2013-03-28 12:12:00,
2013-03-28 07:22:00,29.0,27.0,30.22,SSE,158,0.0,2.0,94,0.00,,,0.00,,2013-03-28 12:22:00,
2013-03-28 07:42:00,29.0,27.0,30.22,SSE,158,0.0,0.0,94,0.00,,,0.00,,2013-03-28 12:42:00,
2013-03-28 07:52:00,29.0,27.0,30.22,SSE,158,0.0,0.0,94,0.00,,,0.00,,2013-03-28 12:52:00,
2013-03-28 08:02:00,29.0,27.0,30.22,SSE,158,0.0,0.0,94,0.00,,,0.00,,2013-03-28 13:02:00,
2013-03-28 08:12:00,29.0,27.0,30.22,SSE,158,0.0,0.0,94,0.00,,,0.00,,2013-03-28 13:12:00,
2013-03-28 08:22:00,29.0,28.0,30.22,SSE,158,0.0,0.0,95,0.00,,,0.00,,2013-03-28 13:22:00,
2013-03-28 08:32:00,30.0,29.0,30.22,SSE,158,0.0,0.0,95,0.00,,,0.00,,2013-03-28 13:32:00,
2013-03-28 08:41:00,30.0,29.0,30.22,SSE,158,0.0,0.0,95,0.00,,,0.00,,2013-03-28 13:41:00,
2013-03-28 08:52:00,33.0,32.0,30.22,SSE,158,0.0,1.0,95,0.00,,,0.00,,2013-03-28 13:52:00,
2013-03-28 09:02:00,35.0,33.0,30.23,SSE,158,0.0,1.0,92,0.00,,,0.00,,2013-03-28 14:02:00,
2013-03-28 09:12:00,35.0,33.0,30.23,SSE,158,0.0,1.0,92,0.00,,,0.00,,2013-03-28 14:12:00,
2013-03-28 09:22:00,37.0,33.0,30.23,SSE,156,0.0,4.0,86,0.00,,,0.00,,2013-03-28 14:22:00,
2013-03-28 09:32:00,39.0,34.0,30.23,SE,126,5.0,8.0,81,0.00,,,0.00,,2013-03-28 14:32:00,
2013-03-28 09:42:00,39.0,34.0,30.23,SE,126,5.0,8.0,81,0.00,,,0.00,,2013-03-28 14:42:00,
2013-03-28 09:52:00,39.0,32.0,30.24,South,175,5.0,9.0,77,0.00,,,0.00,,2013-03-28 14:52:00,
2013-03-28 10:02:00,41.0,34.0,30.24,SE,129,6.0,8.0,76,0.00,,,0.00,,2013-03-28 15:02:00,
2013-03-28 10:12:00,41.0,34.0,30.24,SE,129,6.0,8.0,76,0.00,,,0.00,,2013-03-28 15:12:00,
2013-03-28 10:21:00,42.0,34.0,30.23,SE,138,4.0,8.0,73,0.00,,,0.00,,2013-03-28 15:21:00,
2013-03-28 10:32:00,43.0,34.0,30.23,SSE,163,5.0,8.0,71,0.00,,,0.00,,2013-03-28 15:32:00,
2013-03-28 10:43:00,43.0,34.0,30.23,SSE,163,5.0,8.0,71,0.00,,,0.00,,2013-03-28 15:43:00,
2013-03-28 10:53:00,43.0,34.0,30.23,South,169,3.0,7.0,69,0.00,,,0.00,,2013-03-28 15:53:00,
2013-03-28 11:02:00,45.0,35.0,30.23,South,176,1.0,6.0,67,0.00,,,0.00,,2013-03-28 16:02:00,
2013-03-28 11:12:00,45.0,35.0,30.23,South,176,1.0,6.0,67,0.00,,,0.00,,2013-03-28 16:12:00,
2013-03-28 11:23:00,46.0,35.0,30.23,SSW,199,1.0,4.0,65,0.00,,,0.00,,2013-03-28 16:23:00,
2013-03-28 11:32:00,48.0,36.0,30.22,South,178,0.0,5.0,63,0.00,,,0.00,,2013-03-28 16:32:00,
2013-03-28 11:42:00,48.0,36.0,30.22,South,178,0.0,5.0,63,0.00,,,0.00,,2013-03-28 16:42:00,
2013-03-28 11:52:00,49.0,35.0,30.22,East,98,2.0,6.0,58,0.00,,,0.00,,2013-03-28 16:52:00,
2013-03-28 12:02:00,50.0,35.0,30.22,East,96,2.0,7.0,56,0.00,,,0.00,,2013-03-28 17:02:00,
2013-03-28 12:12:00,50.0,35.0,30.22,East,96,2.0,7.0,56,0.00,,,0.00,,2013-03-28 17:12:00,
2013-03-28 12:22:00,51.0,34.0,30.22,ENE,78,6.0,8.0,53,0.00,,,0.00,,2013-03-28 17:22:00,
2013-03-28 12:32:00,52.0,35.0,30.21,East,88,0.0,7.0,53,0.00,,,0.00,,2013-03-28 17:32:00,
2013-03-28 12:42:00,52.0,35.0,30.21,East,88,0.0,7.0,53,0.00,,,0.00,,2013-03-28 17:42:00,
2013-03-28 12:52:00,53.0,34.0,30.21,East,81,1.0,9.0,48,0.00,,,0.00,,2013-03-28 17:52:00,
2013-03-28 13:02:00,54.0,34.0,30.20,SE,134,7.0,11.0,47,0.00,,,0.00,,2013-03-28 18:02:00,
2013-03-28 13:12:00,54.0,34.0,30.20,SE,134,7.0,11.0,47,0.00,,,0.00,,2013-03-28 18:12:00,
2013-03-28 13:22:00,54.0,33.0,30.20,East,99,5.0,9.0,45,0.00,,,0.00,,2013-03-28 18:22:00,
2013-03-28 13:32:00,55.0,35.0,30.19,SSE,154,2.0,9.0,46,0.00,,,0.00,,2013-03-28 18:32:00,
2013-03-28 13:42:00,55.0,35.0,30.19,SSE,154,2.0,9.0,46,0.00,,,0.00,,2013-03-28 18:42:00,
2013-03-28 13:52:00,56.0,34.0,30.19,SSE,163,6.0,14.0,44,0.00,,,0.00,,2013-03-28 18:52:00,
2013-03-28 14:02:00,56.0,34.0,30.18,SE,128,2.0,9.0,43,0.00,,,0.00,,2013-03-28 19:02:00,
2013-03-28 14:12:00,56.0,34.0,30.18,SE,128,2.0,9.0,43,0.00,,,0.00,,2013-03-28 19:12:00,
2013-03-28 14:22:00,57.0,35.0,30.18,South,180,6.0,12.0,43,0.00,,,0.00,,2013-03-28 19:22:00,
2013-03-28 14:32:00,57.0,35.0,30.18,South,186,4.0,7.0,44,0.00,,,0.00,,2013-03-28 19:32:00,
2013-03-28 14:42:00,57.0,35.0,30.18,South,186,4.0,7.0,44,0.00,,,0.00,,2013-03-28 19:42:00,
2013-03-28 14:52:00,57.0,34.0,30.17,SSW,197,5.0,9.0,42,0.00,,,0.00,,2013-03-28 19:52:00,
2013-03-28 15:03:00,57.0,35.0,30.16,SSW,202,2.0,8.0,43,0.00,,,0.00,,2013-03-28 20:03:00,
2013-03-28 15:12:00,57.0,35.0,30.16,SSW,202,2.0,8.0,43,0.00,,,0.00,,2013-03-28 20:12:00,
2013-03-28 15:22:00,57.0,35.0,30.16,SSW,199,7.0,9.0,43,0.00,,,0.00,,2013-03-28 20:22:00,
2013-03-28 15:32:00,57.0,34.0,30.16,ESE,106,2.0,13.0,42,0.00,,,0.00,,2013-03-28 20:32:00,
2013-03-28 15:42:00,57.0,34.0,30.16,ESE,106,2.0,13.0,42,0.00,,,0.00,,2013-03-28 20:42:00,
2013-03-28 15:53:00,57.0,34.0,30.15,ESE,107,2.0,7.0,42,0.00,,,0.00,,2013-03-28 20:53:00,
2013-03-28 16:02:00,58.0,34.0,30.15,SSE,159,6.0,8.0,41,0.00,,,0.00,,2013-03-28 21:02:00,
2013-03-28 16:12:00,58.0,34.0,30.15,SSE,159,6.0,8.0,41,0.00,,,0.00,,2013-03-28 21:12:00,
2013-03-28 16:22:00,58.0,35.0,30.14,SSE,148,3.0,6.0,42,0.00,,,0.00,,2013-03-28 21:22:00,
2013-03-28 16:32:00,57.0,34.0,30.14,SE,128,2.0,6.0,42,0.00,,,0.00,,2013-03-28 21:32:00,
2013-03-28 16:43:00,57.0,34.0,30.14,SE,128,2.0,6.0,42,0.00,,,0.00,,2013-03-28 21:43:00,
2013-03-28 16:53:00,57.0,34.0,30.13,East,79,5.0,9.0,42,0.00,,,0.00,,2013-03-28 21:53:00,
2013-03-28 17:02:00,58.0,34.0,30.13,East,96,5.0,8.0,41,0.00,,,0.00,,2013-03-28 22:02:00,
2013-03-28 17:12:00,58.0,34.0,30.13,East,96,5.0,8.0,41,0.00,,,0.00,,2013-03-28 22:12:00,
2013-03-28 17:22:00,58.0,34.0,30.12,ESE,115,8.0,11.0,40,0.00,,,0.00,,2013-03-28 22:22:00,
2013-03-28 17:32:00,58.0,34.0,30.12,East,83,6.0,11.0,41,0.00,,,0.00,,2013-03-28 22:32:00,
2013-03-28 17:42:00,58.0,34.0,30.12,East,83,6.0,11.0,41,0.00,,,0.00,,2013-03-28 22:42:00,
2013-03-28 17:52:00,57.0,34.0,30.13,ESE,105,5.0,9.0,41,0.00,,,0.00,,2013-03-28 22:52:00,
2013-03-28 18:02:00,58.0,34.0,30.13,ESE,119,6.0,7.0,41,0.00,,,0.00,,2013-03-28 23:02:00,
2013-03-28 18:12:00,58.0,34.0,30.13,ESE,119,6.0,7.0,41,0.00,,,0.00,,2013-03-28 23:12:00,
2013-03-28 18:22:00,58.0,34.0,30.13,ESE,109,7.0,8.0,40,0.00,,,0.00,,2013-03-28 23:22:00,
2013-03-28 18:32:00,58.0,33.0,30.13,SE,132,5.0,7.0,39,0.00,,,0.00,,2013-03-28 23:32:00,
2013-03-28 18:42:00,58.0,33.0,30.13,SE,132,5.0,7.0,39,0.00,,,0.00,,2013-03-28 23:42:00,
2013-03-28 18:52:00,58.0,34.0,30.13,SSE,150,5.0,7.0,40,0.00,,,0.00,,2013-03-28 23:52:00,
2013-03-28 19:02:00,58.0,33.0,30.14,East,98,4.0,5.0,39,0.00,,,0.00,,2013-03-29 00:02:00,
2013-03-28 19:12:00,58.0,33.0,30.14,East,98,4.0,5.0,39,0.00,,,0.00,,2013-03-29 00:12:00,
2013-03-28 19:22:00,57.0,32.0,30.14,East,99,3.0,5.0,38,0.00,,,0.00,,2013-03-29 00:22:00,
2013-03-28 19:32:00,56.0,33.0,30.15,ESE,102,0.0,4.0,41,0.00,,,0.00,,2013-03-29 00:32:00,
2013-03-28 19:42:00,56.0,33.0,30.15,ESE,102,0.0,4.0,41,0.00,,,0.00,,2013-03-29 00:42:00,
2013-03-28 19:52:00,55.0,35.0,30.15,ESE,102,0.0,0.0,47,0.00,,,0.00,,2013-03-29 00:52:00,
2013-03-28 20:02:00,54.0,35.0,30.16,ESE,102,0.0,0.0,48,0.00,,,0.00,,2013-03-29 01:02:00,
2013-03-28 20:12:00,54.0,35.0,30.16,ESE,102,0.0,0.0,48,0.00,,,0.00,,2013-03-29 01:12:00,
2013-03-28 20:22:00,52.0,31.0,30.16,ESE,102,0.0,0.0,45,0.00,,,0.00,,2013-03-29 01:22:00,
2013-03-28 20:32:00,50.0,33.0,30.16,ESE,102,0.0,0.0,51,0.00,,,0.00,,2013-03-29 01:32:00,
2013-03-28 20:42:00,50.0,33.0,30.16,ESE,102,0.0,0.0,51,0.00,,,0.00,,2013-03-29 01:42:00,
2013-03-28 20:52:00,49.0,36.0,30.16,ESE,102,0.0,0.0,60,0.00,,,0.00,,2013-03-29 01:52:00,
2013-03-28 21:02:00,48.0,34.0,30.16,ESE,102,0.0,0.0,59,0.00,,,0.00,,2013-03-29 02:02:00,
2013-03-28 21:12:00,48.0,34.0,30.16,ESE,102,0.0,0.0,59,0.00,,,0.00,,2013-03-29 02:12:00,
2013-03-28 21:22:00,47.0,34.0,30.17,ESE,102,0.0,1.0,61,0.00,,,0.00,,2013-03-29 02:22:00,
2013-03-28 21:32:00,47.0,35.0,30.17,East,101,0.0,4.0,63,0.00,,,0.00,,2013-03-29 02:32:00,
2013-03-28 21:42:00,47.0,35.0,30.17,East,101,0.0,4.0,63,0.00,,,0.00,,2013-03-29 02:42:00,
2013-03-28 21:53:00,46.0,34.0,30.17,East,101,0.0,1.0,63,0.00,,,0.00,,2013-03-29 02:53:00,
2013-03-28 22:02:00,45.0,34.0,30.17,East,101,0.0,1.0,64,0.00,,,0.00,,2013-03-29 03:02:00,
2013-03-28 22:12:00,45.0,34.0,30.17,East,101,0.0,1.0,64,0.00,,,0.00,,2013-03-29 03:12:00,
2013-03-28 22:22:00,44.0,33.0,30.17,East,101,0.0,0.0,66,0.00,,,0.00,,2013-03-29 03:22:00,
2013-03-28 22:32:00,42.0,32.0,30.18,East,101,0.0,0.0,68,0.00,,,0.00,,2013-03-29 03:32:00,
2013-03-28 22:42:00,42.0,32.0,30.18,East,101,0.0,0.0,68,0.00,,,0.00,,2013-03-29 03:42:00,
2013-03-28 22:53:00,41.0,32.0,30.18,East,101,0.0,2.0,71,0.00,,,0.00,,2013-03-29 03:53:00,
2013-03-28 23:03:00,41.0,32.0,30.18,ESE,102,0.0,1.0,71,0.00,,,0.00,,2013-03-29 04:03:00,
2013-03-28 23:12:00,41.0,32.0,30.18,ESE,102,0.0,1.0,71,0.00,,,0.00,,2013-03-29 04:12:00,
2013-03-28 23:22:00,41.0,32.0,30.18,East,101,0.0,2.0,71,0.00,,,0.00,,2013-03-29 04:22:00,
2013-03-28 23:33:00,42.0,33.0,30.17,East,101,0.0,4.0,70,0.00,,,0.00,,2013-03-29 04:33:00,
2013-03-28 23:43:00,42.0,33.0,30.17,East,101,0.0,4.0,70,0.00,,,0.00,,2013-03-29 04:43:00,
2013-03-28 23:52:00,41.0,32.0,30.17,East,101,0.0,1.0,70,0.00,,,0.00,,2013-03-29 04:52:00,